Map

Track Data

SID SEASON NUMBER BASIN SUBBASIN NAME ISO_TIME NATURE LAT LON WMO_WIND WMO_PRES WMO_AGENCY TRACK_TYPE DIST2LAND LANDFALL IFLAG USA_AGENCY USA_ATCF_ID USA_LAT USA_LON USA_RECORD USA_STATUS USA_WIND USA_PRES USA_SSHS USA_R34_NE USA_R34_SE USA_R34_SW USA_R34_NW USA_R50_NE USA_R50_SE USA_R50_SW USA_R50_NW USA_R64_NE USA_R64_SE USA_R64_SW USA_R64_NW USA_POCI USA_ROCI USA_RMW USA_EYE TOKYO_LAT TOKYO_LON TOKYO_GRADE TOKYO_WIND TOKYO_PRES TOKYO_R50_DIR TOKYO_R50_LONG TOKYO_R50_SHORT TOKYO_R30_DIR TOKYO_R30_LONG TOKYO_R30_SHORT TOKYO_LAND CMA_LAT CMA_LON CMA_CAT CMA_WIND CMA_PRES HKO_LAT HKO_LON HKO_CAT HKO_WIND HKO_PRES NEWDELHI_LAT NEWDELHI_LON NEWDELHI_GRADE NEWDELHI_WIND NEWDELHI_PRES NEWDELHI_CI NEWDELHI_DP NEWDELHI_POCI REUNION_LAT REUNION_LON REUNION_TYPE REUNION_WIND REUNION_PRES REUNION_TNUM REUNION_CI REUNION_RMW REUNION_R34_NE REUNION_R34_SE REUNION_R34_SW REUNION_R34_NW REUNION_R50_NE REUNION_R50_SE REUNION_R50_SW REUNION_R50_NW REUNION_R64_NE REUNION_R64_SE REUNION_R64_SW REUNION_R64_NW BOM_LAT BOM_LON BOM_TYPE BOM_WIND BOM_PRES BOM_TNUM BOM_CI BOM_RMW BOM_R34_NE BOM_R34_SE BOM_R34_SW BOM_R34_NW BOM_R50_NE BOM_R50_SE BOM_R50_SW BOM_R50_NW BOM_R64_NE BOM_R64_SE BOM_R64_SW BOM_R64_NW BOM_ROCI BOM_POCI BOM_EYE BOM_POS_METHOD BOM_PRES_METHOD NADI_LAT NADI_LON NADI_CAT NADI_WIND NADI_PRES WELLINGTON_LAT WELLINGTON_LON WELLINGTON_WIND WELLINGTON_PRES DS824_LAT DS824_LON DS824_STAGE DS824_WIND DS824_PRES TD9636_LAT TD9636_LON TD9636_STAGE TD9636_WIND TD9636_PRES TD9635_LAT TD9635_LON TD9635_WIND TD9635_PRES TD9635_ROCI NEUMANN_LAT NEUMANN_LON NEUMANN_CLASS NEUMANN_WIND NEUMANN_PRES MLC_LAT MLC_LON MLC_CLASS MLC_WIND MLC_PRES USA_GUST BOM_GUST BOM_GUST_PER REUNION_GUST REUNION_GUST_PER USA_SEAHGT USA_SEARAD_NE USA_SEARAD_SE USA_SEARAD_SW USA_SEARAD_NW STORM_SPEED STORM_DIR
1984239N16246 1984 70 EP MM LOWELL 1984-08-26 06:00:00 TS 15.6000 -114.100 25 hurdat_epa main 922 922 O_________O___ hurdat_epa EP131984 15.6000 -114.100 TD 25 -1 15.6000 -114.100 1 25 7 279
1984239N16246 1984 70 EP MM LOWELL 1984-08-26 09:00:00 TS 15.6515 -114.434 main 928 928 P_________P___ EP131984 15.6526 -114.435 TD 25 -1 15.6483 -114.430 1 25 7 278
1984239N16246 1984 70 EP MM LOWELL 1984-08-26 12:00:00 TS 15.7000 -114.800 25 hurdat_epa main 949 949 O_________O___ hurdat_epa EP131984 15.7000 -114.800 TD 25 -1 15.7000 -114.800 1 25 8 277
1984239N16246 1984 70 EP MM LOWELL 1984-08-26 15:00:00 TS 15.7464 -115.225 main 972 969 P_________P___ EP131984 15.7424 -115.220 TD 30 -1 15.7584 -115.238 1 27 9 277
1984239N16246 1984 70 EP MM LOWELL 1984-08-26 18:00:00 TS 15.8065 -115.708 35 hurdat_epa main 993 993 O_________P___ hurdat_epa EP131984 15.8000 -115.700 TS 35 0 15.8262 -115.732 1 30 10 279
1984239N16246 1984 70 EP MM LOWELL 1984-08-26 21:00:00 TS 15.8958 -116.247 main 1017 1017 P_________P___ EP131984 15.8925 -116.242 TS 35 0 15.9058 -116.260 1 32 11 280
1984239N16246 1984 70 EP MM LOWELL 1984-08-27 00:00:00 TS 16.0000 -116.800 35 hurdat_epa main 1050 1050 O_________O___ hurdat_epa EP131984 16.0000 -116.800 TS 35 0 16.0000 -116.800 2 35 10 281
1984239N16246 1984 70 EP MM LOWELL 1984-08-27 03:00:00 TS 16.0984 -117.303 main 1078 1078 P_________P___ EP131984 16.0923 -117.300 TS 37 0 16.1166 -117.313 2 40 10 282
1984239N16246 1984 70 EP MM LOWELL 1984-08-27 06:00:00 TS 16.2115 -117.808 40 hurdat_epa main 1108 1108 O_________P___ hurdat_epa EP131984 16.2000 -117.800 TS 40 0 16.2462 -117.833 2 45 10 284
1984239N16246 1984 70 EP MM LOWELL 1984-08-27 09:00:00 TS 16.3569 -118.347 main 1130 1130 P_________P___ EP131984 16.3499 -118.342 TS 47 0 16.3777 -118.362 2 50 11 285
1984239N16246 1984 70 EP MM LOWELL 1984-08-27 12:00:00 TS 16.5000 -118.900 55 hurdat_epa main 1157 1157 O_________O___ hurdat_epa EP131984 16.5000 -118.900 TS 55 0 16.5000 -118.900 2 55 11 283
1984239N16246 1984 70 EP MM LOWELL 1984-08-27 15:00:00 TS 16.5985 -119.465 main 1188 1188 P_________P___ EP131984 16.6000 -119.465 TS 60 0 16.5943 -119.464 2 60 11 281
1984239N16246 1984 70 EP MM LOWELL 1984-08-27 18:00:00 TS 16.7000 -120.000 65 hurdat_epa main 1213 1213 O_________O___ hurdat_epa EP131984 16.7000 -120.000 HU 65 1 16.7000 -120.000 3 65 10 284
1984239N16246 1984 70 EP MM LOWELL 1984-08-27 21:00:00 TS 16.8354 -120.477 main 1241 1233 P_________P___ EP131984 16.8349 -120.480 HU 65 1 16.8368 -120.469 3 65 9 289
1984239N16246 1984 70 EP MM LOWELL 1984-08-28 00:00:00 TS 17.0000 -120.900 65 hurdat_epa main 1255 1254 O_________O___ hurdat_epa EP131984 17.0000 -120.900 HU 65 1 17.0000 -120.900 4 65 8 295
1984239N16246 1984 70 EP MM LOWELL 1984-08-28 03:00:00 TS 17.1798 -121.263 main 1269 1269 P_________P___ EP131984 17.1922 -121.243 HU 67 1 17.1425 -121.322 4 67 8 298
1984239N16246 1984 70 EP MM LOWELL 1984-08-28 06:00:00 TS 17.3760 -121.634 70 hurdat_epa main 1277 1277 O_________P___ hurdat_epa EP131984 17.4000 -121.600 HU 70 1 17.3039 -121.735 4 70 9 295
1984239N16246 1984 70 EP MM LOWELL 1984-08-28 09:00:00 TS 17.5502 -122.092 main 1303 1303 P_________P___ EP131984 17.5625 -122.070 HU 72 1 17.5133 -122.155 4 72 10 295
1984239N16246 1984 70 EP MM LOWELL 1984-08-28 12:00:00 TS 17.8000 -122.600 75 hurdat_epa main 1330 1330 O_________O___ hurdat_epa EP131984 17.8000 -122.600 HU 75 1 17.8000 -122.600 4 75 12 303
1984239N16246 1984 70 EP MM LOWELL 1984-08-28 15:00:00 TS 18.2017 -123.137 main 1343 1338 P_________P___ EP131984 18.2050 -123.150 HU 70 1 18.1919 -123.100 4 72 14 311
1984239N16246 1984 70 EP MM LOWELL 1984-08-28 18:00:00 TS 18.6900 -123.682 65 hurdat_epa main 1341 1334 O_________P___ hurdat_epa EP131984 18.7000 -123.700 HU 65 1 18.6601 -123.627 4 70 14 314
1984239N16246 1984 70 EP MM LOWELL 1984-08-28 21:00:00 TS 19.1932 -124.203 main 1334 1330 P_________P___ EP131984 19.1999 -124.215 HU 65 1 19.1732 -124.166 4 67 14 316
1984239N16246 1984 70 EP MM LOWELL 1984-08-29 00:00:00 TS 19.7000 -124.700 65 hurdat_epa main 1330 1330 O_________O___ hurdat_epa EP131984 19.7000 -124.700 HU 65 1 19.7000 -124.700 4 65 13 317
1984239N16246 1984 70 EP MM LOWELL 1984-08-29 03:00:00 TS 20.1537 -125.159 main 1331 1331 P_________P___ EP131984 20.1422 -125.143 HU 60 0 20.1882 -125.208 4 61 13 317
1984239N16246 1984 70 EP MM LOWELL 1984-08-29 06:00:00 TS 20.6211 -125.627 55 hurdat_epa main 1334 1334 O_________P___ hurdat_epa EP131984 20.6000 -125.600 TS 55 0 20.6843 -125.709 4 57 14 317
1984239N16246 1984 70 EP MM LOWELL 1984-08-29 09:00:00 TS 21.1541 -126.169 main 1344 1344 P_________P___ EP131984 21.1427 -126.157 TS 52 0 21.1882 -126.205 4 53 15 317
1984239N16246 1984 70 EP MM LOWELL 1984-08-29 12:00:00 TS 21.7000 -126.700 50 hurdat_epa main 1357 1354 O_________O___ hurdat_epa EP131984 21.7000 -126.700 TS 50 0 21.7000 -126.700 2 50 14 320
1984239N16246 1984 70 EP MM LOWELL 1984-08-29 15:00:00 TS 22.2053 -127.115 main 1364 1362 P_________P___ EP131984 22.1995 -127.094 TS 45 0 22.2230 -127.179 2 45 13 322
1984239N16246 1984 70 EP MM LOWELL 1984-08-29 18:00:00 TS 22.7131 -127.540 40 hurdat_epa main 1374 1374 O_________P___ hurdat_epa EP131984 22.7000 -127.500 TS 40 0 22.7524 -127.661 2 40 14 319
1984239N16246 1984 70 EP MM LOWELL 1984-08-29 21:00:00 TS 23.2577 -128.093 main 1401 1401 P_________P___ EP131984 23.2501 -128.070 TS 35 0 23.2806 -128.162 2 35 15 316
1984239N16246 1984 70 EP MM LOWELL 1984-08-30 00:00:00 TS 23.8000 -128.700 30 hurdat_epa main 1424 1405 O_________O___ hurdat_epa EP131984 23.8000 -128.700 TD 30 -1 23.8000 -128.700 1 30 15 314
1984239N16246 1984 70 EP MM LOWELL 1984-08-30 03:00:00 TS 24.3108 -129.303 main 1411 1399 P_________P___ EP131984 24.3128 -129.309 TD 27 -1 24.3049 -129.285 1 27 15 312
1984239N16246 1984 70 EP MM LOWELL 1984-08-30 06:00:00 TS 24.8000 -129.900 25 hurdat_epa main 1402 O_________O___ hurdat_epa EP131984 24.8000 -129.900 TD 25 -1 24.8000 -129.900 1 25 15 312

About IBTrACS Database

This database is a web-friendly format of International Best Track Archive for Climate Stewardship (IBTrACS), a global best track data archive curated by NOAA dating back to 1842.

Updated: 2021-11-26